sensor_id;sensor_type;location;lat;lon;timestamp;P1;durP1;ratioP1;P2;durP2;ratioP2
40867;SDS011;26586;50.708;22.412;2023-01-19T00:01:34;62.75;;;30.50;;
40867;SDS011;26586;50.708;22.412;2023-01-19T00:04:01;50.78;;;27.45;;
40867;SDS011;26586;50.708;22.412;2023-01-19T00:06:27;24.57;;;14.43;;
40867;SDS011;26586;50.708;22.412;2023-01-19T00:08:53;14.63;;;10.02;;
40867;SDS011;26586;50.708;22.412;2023-01-19T00:11:19;12.80;;;9.77;;
40867;SDS011;26586;50.708;22.412;2023-01-19T00:13:45;15.98;;;9.98;;
40867;SDS011;26586;50.708;22.412;2023-01-19T00:16:15;12.75;;;8.57;;
40867;SDS011;26586;50.708;22.412;2023-01-19T00:18:43;13.13;;;9.10;;
40867;SDS011;26586;50.708;22.412;2023-01-19T00:21:10;15.98;;;10.40;;
40867;SDS011;26586;50.708;22.412;2023-01-19T00:23:39;21.80;;;11.82;;
40867;SDS011;26586;50.708;22.412;2023-01-19T00:26:05;19.00;;;11.73;;
40867;SDS011;26586;50.708;22.412;2023-01-19T00:28:32;13.45;;;8.73;;
40867;SDS011;26586;50.708;22.412;2023-01-19T00:30:59;12.93;;;8.10;;
40867;SDS011;26586;50.708;22.412;2023-01-19T00:33:25;38.00;;;17.63;;
40867;SDS011;26586;50.708;22.412;2023-01-19T00:35:52;27.60;;;14.27;;
40867;SDS011;26586;50.708;22.412;2023-01-19T00:38:21;25.83;;;12.52;;
40867;SDS011;26586;50.708;22.412;2023-01-19T00:40:48;51.63;;;21.10;;
40867;SDS011;26586;50.708;22.412;2023-01-19T00:43:14;38.20;;;19.30;;
40867;SDS011;26586;50.708;22.412;2023-01-19T00:45:41;67.80;;;31.65;;
40867;SDS011;26586;50.708;22.412;2023-01-19T00:48:07;38.17;;;21.08;;
40867;SDS011;26586;50.708;22.412;2023-01-19T00:50:34;51.67;;;23.40;;
40867;SDS011;26586;50.708;22.412;2023-01-19T00:53:00;36.95;;;19.25;;
40867;SDS011;26586;50.708;22.412;2023-01-19T00:55:28;43.80;;;22.02;;
40867;SDS011;26586;50.708;22.412;2023-01-19T00:57:55;47.35;;;23.52;;
40867;SDS011;26586;50.708;22.412;2023-01-19T01:00:22;38.22;;;20.52;;
40867;SDS011;26586;50.708;22.412;2023-01-19T01:02:49;27.48;;;15.00;;
40867;SDS011;26586;50.708;22.412;2023-01-19T01:05:17;29.15;;;15.05;;
40867;SDS011;26586;50.708;22.412;2023-01-19T01:07:44;39.30;;;20.77;;
40867;SDS011;26586;50.708;22.412;2023-01-19T01:10:11;35.20;;;18.90;;
40867;SDS011;26586;50.708;22.412;2023-01-19T01:12:39;28.33;;;15.43;;
40867;SDS011;26586;50.708;22.412;2023-01-19T01:15:07;27.83;;;16.27;;
40867;SDS011;26586;50.708;22.412;2023-01-19T01:17:35;27.25;;;15.02;;
40867;SDS011;26586;50.708;22.412;2023-01-19T01:20:02;30.48;;;15.57;;
40867;SDS011;26586;50.708;22.412;2023-01-19T01:22:29;29.80;;;15.55;;
40867;SDS011;26586;50.708;22.412;2023-01-19T01:24:56;31.38;;;15.13;;
40867;SDS011;26586;50.708;22.412;2023-01-19T01:27:22;30.52;;;16.73;;
40867;SDS011;26586;50.708;22.412;2023-01-19T01:29:48;44.83;;;21.60;;
40867;SDS011;26586;50.708;22.412;2023-01-19T01:32:14;37.53;;;18.33;;
40867;SDS011;26586;50.708;22.412;2023-01-19T01:34:41;44.50;;;23.35;;
40867;SDS011;26586;50.708;22.412;2023-01-19T01:37:07;42.60;;;20.55;;
40867;SDS011;26586;50.708;22.412;2023-01-19T01:39:34;34.13;;;18.92;;
40867;SDS011;26586;50.708;22.412;2023-01-19T01:42:00;31.33;;;15.73;;
40867;SDS011;26586;50.708;22.412;2023-01-19T01:49:49;24.58;;;12.18;;
40867;SDS011;26586;50.708;22.412;2023-01-19T01:52:21;22.75;;;14.35;;
40867;SDS011;26586;50.708;22.412;2023-01-19T01:54:50;28.83;;;16.98;;
40867;SDS011;26586;50.708;22.412;2023-01-19T01:57:17;26.75;;;15.18;;
40867;SDS011;26586;50.708;22.412;2023-01-19T01:59:44;28.83;;;15.88;;
40867;SDS011;26586;50.708;22.412;2023-01-19T02:02:20;29.70;;;16.80;;
40867;SDS011;26586;50.708;22.412;2023-01-19T02:05:12;25.30;;;15.73;;
40867;SDS011;26586;50.708;22.412;2023-01-19T02:07:45;20.10;;;12.15;;
40867;SDS011;26586;50.708;22.412;2023-01-19T02:10:31;15.70;;;10.20;;
40867;SDS011;26586;50.708;22.412;2023-01-19T02:13:17;18.50;;;11.98;;
40867;SDS011;26586;50.708;22.412;2023-01-19T02:15:54;20.05;;;12.27;;
40867;SDS011;26586;50.708;22.412;2023-01-19T02:18:23;20.85;;;12.57;;
40867;SDS011;26586;50.708;22.412;2023-01-19T02:26:04;16.98;;;9.82;;
40867;SDS011;26586;50.708;22.412;2023-01-19T02:28:33;16.83;;;9.85;;
40867;SDS011;26586;50.708;22.412;2023-01-19T02:31:04;17.30;;;9.05;;
40867;SDS011;26586;50.708;22.412;2023-01-19T02:33:31;21.50;;;11.37;;
40867;SDS011;26586;50.708;22.412;2023-01-19T02:35:57;21.13;;;12.35;;
40867;SDS011;26586;50.708;22.412;2023-01-19T02:38:25;27.20;;;13.38;;
40867;SDS011;26586;50.708;22.412;2023-01-19T02:40:54;25.10;;;13.40;;
40867;SDS011;26586;50.708;22.412;2023-01-19T02:43:22;12.50;;;6.93;;
40867;SDS011;26586;50.708;22.412;2023-01-19T02:45:49;15.65;;;9.10;;
40867;SDS011;26586;50.708;22.412;2023-01-19T02:48:17;16.88;;;9.18;;
40867;SDS011;26586;50.708;22.412;2023-01-19T02:50:46;15.23;;;9.30;;
40867;SDS011;26586;50.708;22.412;2023-01-19T02:58:38;12.80;;;8.13;;
40867;SDS011;26586;50.708;22.412;2023-01-19T03:03:57;13.20;;;8.13;;
40867;SDS011;26586;50.708;22.412;2023-01-19T03:06:55;14.88;;;8.25;;
40867;SDS011;26586;50.708;22.412;2023-01-19T03:09:31;16.05;;;8.48;;
40867;SDS011;26586;50.708;22.412;2023-01-19T03:14:46;20.70;;;10.18;;
40867;SDS011;26586;50.708;22.412;2023-01-19T03:17:13;52.92;;;26.17;;
40867;SDS011;26586;50.708;22.412;2023-01-19T03:19:42;22.77;;;13.85;;
40867;SDS011;26586;50.708;22.412;2023-01-19T03:22:13;15.18;;;8.55;;
40867;SDS011;26586;50.708;22.412;2023-01-19T03:24:46;11.77;;;7.57;;
40867;SDS011;26586;50.708;22.412;2023-01-19T03:27:24;11.48;;;6.82;;
40867;SDS011;26586;50.708;22.412;2023-01-19T03:30:00;12.32;;;7.63;;
40867;SDS011;26586;50.708;22.412;2023-01-19T03:32:31;10.63;;;6.95;;
40867;SDS011;26586;50.708;22.412;2023-01-19T03:35:02;10.55;;;7.38;;
40867;SDS011;26586;50.708;22.412;2023-01-19T03:37:34;12.55;;;7.55;;
40867;SDS011;26586;50.708;22.412;2023-01-19T03:40:05;12.23;;;7.15;;
40867;SDS011;26586;50.708;22.412;2023-01-19T03:42:33;11.88;;;7.05;;
40867;SDS011;26586;50.708;22.412;2023-01-19T03:45:01;11.25;;;7.18;;
40867;SDS011;26586;50.708;22.412;2023-01-19T03:47:28;11.27;;;7.05;;
40867;SDS011;26586;50.708;22.412;2023-01-19T03:49:54;12.27;;;7.18;;
40867;SDS011;26586;50.708;22.412;2023-01-19T03:52:29;10.18;;;6.97;;
40867;SDS011;26586;50.708;22.412;2023-01-19T03:55:03;21.33;;;10.02;;
40867;SDS011;26586;50.708;22.412;2023-01-19T03:57:30;16.42;;;8.60;;
40867;SDS011;26586;50.708;22.412;2023-01-19T03:59:56;13.23;;;8.20;;
40867;SDS011;26586;50.708;22.412;2023-01-19T04:02:23;10.37;;;7.37;;
40867;SDS011;26586;50.708;22.412;2023-01-19T04:04:49;10.07;;;5.95;;
40867;SDS011;26586;50.708;22.412;2023-01-19T04:07:16;10.05;;;7.05;;
40867;SDS011;26586;50.708;22.412;2023-01-19T04:09:42;13.73;;;8.93;;
40867;SDS011;26586;50.708;22.412;2023-01-19T04:12:08;10.10;;;6.33;;
40867;SDS011;26586;50.708;22.412;2023-01-19T04:14:34;10.43;;;6.22;;
40867;SDS011;26586;50.708;22.412;2023-01-19T04:17:00;12.53;;;6.87;;
40867;SDS011;26586;50.708;22.412;2023-01-19T04:19:26;16.88;;;7.53;;
40867;SDS011;26586;50.708;22.412;2023-01-19T04:21:53;9.30;;;5.77;;
40867;SDS011;26586;50.708;22.412;2023-01-19T04:24:19;14.05;;;7.05;;
40867;SDS011;26586;50.708;22.412;2023-01-19T04:26:46;14.45;;;7.65;;
40867;SDS011;26586;50.708;22.412;2023-01-19T04:29:14;13.60;;;7.80;;
40867;SDS011;26586;50.708;22.412;2023-01-19T04:31:41;19.60;;;10.25;;
40867;SDS011;26586;50.708;22.412;2023-01-19T04:34:07;22.92;;;13.23;;
40867;SDS011;26586;50.708;22.412;2023-01-19T04:36:34;45.70;;;19.85;;
40867;SDS011;26586;50.708;22.412;2023-01-19T04:39:00;34.58;;;16.70;;
40867;SDS011;26586;50.708;22.412;2023-01-19T04:41:27;19.97;;;10.83;;
40867;SDS011;26586;50.708;22.412;2023-01-19T04:43:53;20.92;;;13.48;;
40867;SDS011;26586;50.708;22.412;2023-01-19T04:46:19;15.57;;;9.83;;
40867;SDS011;26586;50.708;22.412;2023-01-19T04:48:45;17.98;;;8.48;;
40867;SDS011;26586;50.708;22.412;2023-01-19T04:51:11;17.30;;;10.33;;
40867;SDS011;26586;50.708;22.412;2023-01-19T04:53:38;15.05;;;9.02;;
40867;SDS011;26586;50.708;22.412;2023-01-19T04:56:04;21.07;;;13.13;;
40867;SDS011;26586;50.708;22.412;2023-01-19T04:58:30;22.77;;;15.25;;
40867;SDS011;26586;50.708;22.412;2023-01-19T05:00:57;19.67;;;13.23;;
40867;SDS011;26586;50.708;22.412;2023-01-19T05:03:23;22.08;;;15.50;;
40867;SDS011;26586;50.708;22.412;2023-01-19T05:05:49;16.57;;;11.97;;
40867;SDS011;26586;50.708;22.412;2023-01-19T05:08:15;26.38;;;13.68;;
40867;SDS011;26586;50.708;22.412;2023-01-19T05:10:42;14.67;;;8.03;;
40867;SDS011;26586;50.708;22.412;2023-01-19T05:13:08;12.23;;;7.85;;
40867;SDS011;26586;50.708;22.412;2023-01-19T05:15:34;11.67;;;6.67;;
40867;SDS011;26586;50.708;22.412;2023-01-19T05:18:00;12.50;;;7.40;;
40867;SDS011;26586;50.708;22.412;2023-01-19T05:20:26;12.87;;;6.90;;
40867;SDS011;26586;50.708;22.412;2023-01-19T05:22:52;11.85;;;7.05;;
40867;SDS011;26586;50.708;22.412;2023-01-19T05:25:19;15.07;;;8.60;;
40867;SDS011;26586;50.708;22.412;2023-01-19T05:27:45;42.13;;;17.05;;
40867;SDS011;26586;50.708;22.412;2023-01-19T05:30:12;51.72;;;19.55;;
40867;SDS011;26586;50.708;22.412;2023-01-19T05:32:38;25.50;;;15.07;;
40867;SDS011;26586;50.708;22.412;2023-01-19T05:35:05;20.23;;;11.98;;
40867;SDS011;26586;50.708;22.412;2023-01-19T05:37:32;18.65;;;10.95;;
40867;SDS011;26586;50.708;22.412;2023-01-19T05:39:58;18.67;;;11.93;;
40867;SDS011;26586;50.708;22.412;2023-01-19T05:42:24;21.05;;;11.10;;
40867;SDS011;26586;50.708;22.412;2023-01-19T05:44:50;71.07;;;24.50;;
40867;SDS011;26586;50.708;22.412;2023-01-19T05:47:17;34.67;;;15.23;;
40867;SDS011;26586;50.708;22.412;2023-01-19T05:49:43;23.17;;;11.30;;
40867;SDS011;26586;50.708;22.412;2023-01-19T05:52:09;18.63;;;9.52;;
40867;SDS011;26586;50.708;22.412;2023-01-19T05:54:36;11.87;;;7.83;;
40867;SDS011;26586;50.708;22.412;2023-01-19T05:57:04;10.88;;;6.63;;
40867;SDS011;26586;50.708;22.412;2023-01-19T05:59:31;18.05;;;8.85;;
40867;SDS011;26586;50.708;22.412;2023-01-19T06:01:57;19.75;;;9.65;;
40867;SDS011;26586;50.708;22.412;2023-01-19T06:04:24;12.70;;;6.75;;
40867;SDS011;26586;50.708;22.412;2023-01-19T06:06:50;11.43;;;7.13;;
40867;SDS011;26586;50.708;22.412;2023-01-19T06:09:16;9.63;;;6.87;;
40867;SDS011;26586;50.708;22.412;2023-01-19T06:11:43;9.73;;;6.17;;
40867;SDS011;26586;50.708;22.412;2023-01-19T06:14:10;11.02;;;6.28;;
40867;SDS011;26586;50.708;22.412;2023-01-19T06:16:37;11.00;;;6.22;;
40867;SDS011;26586;50.708;22.412;2023-01-19T06:19:03;11.45;;;6.95;;
40867;SDS011;26586;50.708;22.412;2023-01-19T06:21:29;12.30;;;6.82;;
40867;SDS011;26586;50.708;22.412;2023-01-19T06:23:56;16.95;;;7.82;;
40867;SDS011;26586;50.708;22.412;2023-01-19T06:26:22;18.00;;;8.65;;
40867;SDS011;26586;50.708;22.412;2023-01-19T06:28:49;21.02;;;11.48;;
40867;SDS011;26586;50.708;22.412;2023-01-19T06:31:16;17.23;;;9.60;;
40867;SDS011;26586;50.708;22.412;2023-01-19T06:33:42;19.40;;;12.30;;
40867;SDS011;26586;50.708;22.412;2023-01-19T06:36:08;21.95;;;12.15;;
40867;SDS011;26586;50.708;22.412;2023-01-19T06:38:35;15.45;;;9.52;;
40867;SDS011;26586;50.708;22.412;2023-01-19T06:41:01;17.88;;;10.88;;
40867;SDS011;26586;50.708;22.412;2023-01-19T06:43:28;21.70;;;13.20;;
40867;SDS011;26586;50.708;22.412;2023-01-19T06:45:55;17.60;;;11.73;;
40867;SDS011;26586;50.708;22.412;2023-01-19T06:48:22;17.98;;;10.45;;
40867;SDS011;26586;50.708;22.412;2023-01-19T06:50:49;14.00;;;8.50;;
40867;SDS011;26586;50.708;22.412;2023-01-19T06:53:16;18.83;;;10.52;;
40867;SDS011;26586;50.708;22.412;2023-01-19T06:55:44;36.92;;;17.83;;
40867;SDS011;26586;50.708;22.412;2023-01-19T06:58:10;105.65;;;54.45;;
40867;SDS011;26586;50.708;22.412;2023-01-19T07:00:37;63.25;;;33.20;;
40867;SDS011;26586;50.708;22.412;2023-01-19T07:03:07;43.70;;;20.65;;
40867;SDS011;26586;50.708;22.412;2023-01-19T07:05:34;41.30;;;19.75;;
40867;SDS011;26586;50.708;22.412;2023-01-19T07:08:00;34.03;;;19.83;;
40867;SDS011;26586;50.708;22.412;2023-01-19T07:10:27;28.42;;;16.45;;
40867;SDS011;26586;50.708;22.412;2023-01-19T07:12:55;27.73;;;15.25;;
40867;SDS011;26586;50.708;22.412;2023-01-19T07:15:22;42.30;;;19.45;;
40867;SDS011;26586;50.708;22.412;2023-01-19T07:17:48;61.03;;;25.83;;
40867;SDS011;26586;50.708;22.412;2023-01-19T07:20:14;45.60;;;21.35;;
40867;SDS011;26586;50.708;22.412;2023-01-19T07:22:42;36.50;;;18.80;;
40867;SDS011;26586;50.708;22.412;2023-01-19T07:25:09;29.67;;;17.58;;
40867;SDS011;26586;50.708;22.412;2023-01-19T07:27:36;34.97;;;17.77;;
40867;SDS011;26586;50.708;22.412;2023-01-19T07:30:02;30.05;;;18.98;;
40867;SDS011;26586;50.708;22.412;2023-01-19T07:32:29;32.88;;;23.77;;
40867;SDS011;26586;50.708;22.412;2023-01-19T07:34:55;30.85;;;22.35;;
40867;SDS011;26586;50.708;22.412;2023-01-19T07:37:21;27.13;;;21.00;;
40867;SDS011;26586;50.708;22.412;2023-01-19T07:39:47;38.95;;;25.45;;
40867;SDS011;26586;50.708;22.412;2023-01-19T07:42:14;33.47;;;21.97;;
40867;SDS011;26586;50.708;22.412;2023-01-19T07:44:40;33.97;;;22.73;;
40867;SDS011;26586;50.708;22.412;2023-01-19T07:47:06;31.13;;;19.87;;
40867;SDS011;26586;50.708;22.412;2023-01-19T07:49:35;36.90;;;20.17;;
40867;SDS011;26586;50.708;22.412;2023-01-19T07:52:01;33.23;;;20.07;;
40867;SDS011;26586;50.708;22.412;2023-01-19T07:54:27;27.42;;;17.63;;
40867;SDS011;26586;50.708;22.412;2023-01-19T07:56:54;34.03;;;22.33;;
40867;SDS011;26586;50.708;22.412;2023-01-19T07:59:20;39.47;;;27.90;;
40867;SDS011;26586;50.708;22.412;2023-01-19T08:01:47;41.10;;;28.02;;
40867;SDS011;26586;50.708;22.412;2023-01-19T08:04:13;53.40;;;38.00;;
40867;SDS011;26586;50.708;22.412;2023-01-19T08:06:39;47.35;;;30.40;;
40867;SDS011;26586;50.708;22.412;2023-01-19T08:09:09;37.60;;;25.27;;
40867;SDS011;26586;50.708;22.412;2023-01-19T08:11:36;26.70;;;18.50;;
40867;SDS011;26586;50.708;22.412;2023-01-19T08:14:02;27.13;;;17.52;;
40867;SDS011;26586;50.708;22.412;2023-01-19T08:16:29;29.20;;;19.67;;
40867;SDS011;26586;50.708;22.412;2023-01-19T08:18:55;27.58;;;19.60;;
40867;SDS011;26586;50.708;22.412;2023-01-19T08:21:21;38.90;;;29.10;;
40867;SDS011;26586;50.708;22.412;2023-01-19T08:23:54;36.40;;;23.67;;
40867;SDS011;26586;50.708;22.412;2023-01-19T08:28:53;34.75;;;22.10;;
40867;SDS011;26586;50.708;22.412;2023-01-19T08:31:21;44.83;;;27.30;;
40867;SDS011;26586;50.708;22.412;2023-01-19T08:33:47;23.73;;;14.73;;
40867;SDS011;26586;50.708;22.412;2023-01-19T08:36:14;43.22;;;34.13;;
40867;SDS011;26586;50.708;22.412;2023-01-19T08:38:40;30.73;;;22.40;;
40867;SDS011;26586;50.708;22.412;2023-01-19T08:41:09;33.42;;;23.63;;
40867;SDS011;26586;50.708;22.412;2023-01-19T08:43:36;29.02;;;20.42;;
40867;SDS011;26586;50.708;22.412;2023-01-19T08:46:05;27.15;;;19.30;;
40867;SDS011;26586;50.708;22.412;2023-01-19T08:48:31;27.48;;;17.88;;
40867;SDS011;26586;50.708;22.412;2023-01-19T08:50:58;22.80;;;16.30;;
40867;SDS011;26586;50.708;22.412;2023-01-19T08:53:24;32.38;;;20.95;;
40867;SDS011;26586;50.708;22.412;2023-01-19T08:55:54;70.43;;;42.17;;
40867;SDS011;26586;50.708;22.412;2023-01-19T08:58:22;34.20;;;24.80;;
40867;SDS011;26586;50.708;22.412;2023-01-19T09:00:48;38.30;;;23.30;;
40867;SDS011;26586;50.708;22.412;2023-01-19T09:03:17;31.15;;;23.58;;
40867;SDS011;26586;50.708;22.412;2023-01-19T09:05:44;21.10;;;14.45;;
40867;SDS011;26586;50.708;22.412;2023-01-19T09:08:11;22.77;;;14.57;;
40867;SDS011;26586;50.708;22.412;2023-01-19T09:10:42;57.78;;;31.17;;
40867;SDS011;26586;50.708;22.412;2023-01-19T09:13:10;42.72;;;24.90;;
40867;SDS011;26586;50.708;22.412;2023-01-19T09:15:38;29.90;;;20.23;;
40867;SDS011;26586;50.708;22.412;2023-01-19T09:18:05;31.48;;;21.25;;
40867;SDS011;26586;50.708;22.412;2023-01-19T09:20:35;24.92;;;16.90;;
40867;SDS011;26586;50.708;22.412;2023-01-19T09:23:03;27.52;;;19.10;;
40867;SDS011;26586;50.708;22.412;2023-01-19T09:25:30;22.20;;;17.15;;
40867;SDS011;26586;50.708;22.412;2023-01-19T09:27:59;17.95;;;13.65;;
40867;SDS011;26586;50.708;22.412;2023-01-19T09:30:27;21.30;;;12.38;;
40867;SDS011;26586;50.708;22.412;2023-01-19T09:32:53;16.30;;;12.63;;
40867;SDS011;26586;50.708;22.412;2023-01-19T09:35:19;25.07;;;17.30;;
40867;SDS011;26586;50.708;22.412;2023-01-19T09:37:46;12.63;;;9.05;;
40867;SDS011;26586;50.708;22.412;2023-01-19T09:40:13;13.43;;;9.48;;
40867;SDS011;26586;50.708;22.412;2023-01-19T09:42:41;15.18;;;9.75;;
40867;SDS011;26586;50.708;22.412;2023-01-19T09:45:13;21.60;;;14.75;;
40867;SDS011;26586;50.708;22.412;2023-01-19T09:47:48;15.40;;;11.95;;
40867;SDS011;26586;50.708;22.412;2023-01-19T09:50:17;22.35;;;14.85;;
40867;SDS011;26586;50.708;22.412;2023-01-19T09:52:53;19.70;;;14.07;;
40867;SDS011;26586;50.708;22.412;2023-01-19T09:55:26;19.75;;;12.88;;
40867;SDS011;26586;50.708;22.412;2023-01-19T09:57:53;17.73;;;13.35;;
40867;SDS011;26586;50.708;22.412;2023-01-19T10:00:19;12.88;;;9.38;;
40867;SDS011;26586;50.708;22.412;2023-01-19T10:02:48;17.67;;;13.98;;
40867;SDS011;26586;50.708;22.412;2023-01-19T10:10:20;9.93;;;7.97;;
40867;SDS011;26586;50.708;22.412;2023-01-19T10:16:06;11.38;;;7.80;;
40867;SDS011;26586;50.708;22.412;2023-01-19T10:18:49;14.30;;;9.27;;
40867;SDS011;26586;50.708;22.412;2023-01-19T10:21:20;12.52;;;8.40;;
40867;SDS011;26586;50.708;22.412;2023-01-19T10:26:23;10.18;;;6.88;;
40867;SDS011;26586;50.708;22.412;2023-01-19T10:31:36;14.13;;;10.05;;
40867;SDS011;26586;50.708;22.412;2023-01-19T10:34:04;14.95;;;10.52;;
40867;SDS011;26586;50.708;22.412;2023-01-19T10:36:35;26.97;;;15.30;;
40867;SDS011;26586;50.708;22.412;2023-01-19T10:39:06;66.25;;;38.58;;
40867;SDS011;26586;50.708;22.412;2023-01-19T10:41:42;26.48;;;14.63;;
40867;SDS011;26586;50.708;22.412;2023-01-19T10:44:21;17.02;;;10.27;;
40867;SDS011;26586;50.708;22.412;2023-01-19T10:46:49;19.58;;;12.13;;
40867;SDS011;26586;50.708;22.412;2023-01-19T10:52:04;22.30;;;11.45;;
40867;SDS011;26586;50.708;22.412;2023-01-19T10:54:32;22.58;;;12.90;;
40867;SDS011;26586;50.708;22.412;2023-01-19T10:57:02;21.90;;;12.60;;
40867;SDS011;26586;50.708;22.412;2023-01-19T10:59:30;28.92;;;14.15;;
40867;SDS011;26586;50.708;22.412;2023-01-19T11:04:51;29.75;;;19.00;;
40867;SDS011;26586;50.708;22.412;2023-01-19T11:07:21;21.27;;;12.68;;
40867;SDS011;26586;50.708;22.412;2023-01-19T11:10:18;15.98;;;8.32;;
40867;SDS011;26586;50.708;22.412;2023-01-19T11:12:56;14.88;;;8.73;;
40867;SDS011;26586;50.708;22.412;2023-01-19T11:15:43;16.17;;;10.38;;
40867;SDS011;26586;50.708;22.412;2023-01-19T11:21:05;13.80;;;10.05;;
40867;SDS011;26586;50.708;22.412;2023-01-19T11:26:06;14.63;;;10.27;;
40867;SDS011;26586;50.708;22.412;2023-01-19T11:28:54;15.02;;;11.25;;
40867;SDS011;26586;50.708;22.412;2023-01-19T11:31:29;15.95;;;10.98;;
40867;SDS011;26586;50.708;22.412;2023-01-19T11:34:00;12.30;;;9.05;;
40867;SDS011;26586;50.708;22.412;2023-01-19T11:36:32;156.98;;;63.53;;
40867;SDS011;26586;50.708;22.412;2023-01-19T11:41:36;16.45;;;11.02;;
40867;SDS011;26586;50.708;22.412;2023-01-19T11:47:10;11.52;;;7.75;;
40867;SDS011;26586;50.708;22.412;2023-01-19T11:49:45;12.65;;;9.25;;
40867;SDS011;26586;50.708;22.412;2023-01-19T11:52:35;14.50;;;10.25;;
40867;SDS011;26586;50.708;22.412;2023-01-19T11:55:31;16.02;;;9.90;;
40867;SDS011;26586;50.708;22.412;2023-01-19T11:58:17;18.33;;;12.43;;
40867;SDS011;26586;50.708;22.412;2023-01-19T12:06:08;20.40;;;14.80;;
40867;SDS011;26586;50.708;22.412;2023-01-19T12:08:42;19.25;;;13.73;;
40867;SDS011;26586;50.708;22.412;2023-01-19T12:11:21;16.27;;;11.52;;
40867;SDS011;26586;50.708;22.412;2023-01-19T12:13:50;13.90;;;10.93;;
40867;SDS011;26586;50.708;22.412;2023-01-19T12:16:19;13.38;;;10.23;;
40867;SDS011;26586;50.708;22.412;2023-01-19T12:18:47;13.05;;;9.77;;
40867;SDS011;26586;50.708;22.412;2023-01-19T12:23:52;12.13;;;8.57;;
40867;SDS011;26586;50.708;22.412;2023-01-19T12:29:23;118.40;;;48.38;;
40867;SDS011;26586;50.708;22.412;2023-01-19T12:37:28;36.10;;;24.73;;
40867;SDS011;26586;50.708;22.412;2023-01-19T12:39:59;25.73;;;18.73;;
40867;SDS011;26586;50.708;22.412;2023-01-19T12:42:59;24.67;;;16.50;;
40867;SDS011;26586;50.708;22.412;2023-01-19T12:45:28;126.18;;;62.28;;
40867;SDS011;26586;50.708;22.412;2023-01-19T12:47:57;121.78;;;67.53;;
40867;SDS011;26586;50.708;22.412;2023-01-19T12:50:24;96.78;;;53.58;;
40867;SDS011;26586;50.708;22.412;2023-01-19T12:53:00;77.55;;;41.97;;
40867;SDS011;26586;50.708;22.412;2023-01-19T12:55:37;53.65;;;34.70;;
40867;SDS011;26586;50.708;22.412;2023-01-19T13:00:48;19.55;;;13.68;;
40867;SDS011;26586;50.708;22.412;2023-01-19T13:03:42;31.88;;;21.35;;
40867;SDS011;26586;50.708;22.412;2023-01-19T13:06:08;35.00;;;20.20;;
40867;SDS011;26586;50.708;22.412;2023-01-19T13:09:23;57.65;;;35.17;;
40867;SDS011;26586;50.708;22.412;2023-01-19T13:11:24;52.65;;;32.97;;
40867;SDS011;26586;50.708;22.412;2023-01-19T13:21:31;65.90;;;35.50;;
40867;SDS011;26586;50.708;22.412;2023-01-19T13:24:00;62.88;;;29.40;;
40867;SDS011;26586;50.708;22.412;2023-01-19T13:26:55;46.78;;;21.50;;
40867;SDS011;26586;50.708;22.412;2023-01-19T13:29:28;60.15;;;29.80;;
40867;SDS011;26586;50.708;22.412;2023-01-19T13:31:59;40.83;;;21.13;;
40867;SDS011;26586;50.708;22.412;2023-01-19T13:34:38;43.97;;;21.73;;
40867;SDS011;26586;50.708;22.412;2023-01-19T13:37:11;20.17;;;12.18;;
40867;SDS011;26586;50.708;22.412;2023-01-19T13:39:43;20.58;;;12.43;;
40867;SDS011;26586;50.708;22.412;2023-01-19T13:42:19;28.60;;;15.30;;
40867;SDS011;26586;50.708;22.412;2023-01-19T13:45:00;32.60;;;16.25;;
40867;SDS011;26586;50.708;22.412;2023-01-19T13:47:47;51.83;;;24.80;;
40867;SDS011;26586;50.708;22.412;2023-01-19T13:50:18;33.92;;;18.27;;
40867;SDS011;26586;50.708;22.412;2023-01-19T13:52:45;25.05;;;13.95;;
40867;SDS011;26586;50.708;22.412;2023-01-19T13:55:13;29.42;;;16.38;;
40867;SDS011;26586;50.708;22.412;2023-01-19T13:57:43;20.98;;;10.10;;
40867;SDS011;26586;50.708;22.412;2023-01-19T14:02:37;21.08;;;12.70;;
40867;SDS011;26586;50.708;22.412;2023-01-19T14:10:38;17.42;;;12.05;;
40867;SDS011;26586;50.708;22.412;2023-01-19T14:15:42;19.02;;;10.77;;
40867;SDS011;26586;50.708;22.412;2023-01-19T14:18:17;19.48;;;10.30;;
40867;SDS011;26586;50.708;22.412;2023-01-19T14:23:43;18.88;;;9.80;;
40867;SDS011;26586;50.708;22.412;2023-01-19T14:27:16;15.85;;;10.38;;
40867;SDS011;26586;50.708;22.412;2023-01-19T14:34:36;38.70;;;23.88;;
40867;SDS011;26586;50.708;22.412;2023-01-19T14:37:15;56.00;;;30.75;;
40867;SDS011;26586;50.708;22.412;2023-01-19T14:39:52;41.92;;;27.33;;
40867;SDS011;26586;50.708;22.412;2023-01-19T14:42:25;43.05;;;28.17;;
40867;SDS011;26586;50.708;22.412;2023-01-19T14:44:54;55.35;;;36.53;;
40867;SDS011;26586;50.708;22.412;2023-01-19T14:50:04;76.10;;;45.42;;
40867;SDS011;26586;50.708;22.412;2023-01-19T14:52:46;60.45;;;39.30;;
40867;SDS011;26586;50.708;22.412;2023-01-19T14:55:23;59.42;;;38.45;;
40867;SDS011;26586;50.708;22.412;2023-01-19T14:57:56;61.72;;;37.83;;
40867;SDS011;26586;50.708;22.412;2023-01-19T15:00:22;58.97;;;36.28;;
40867;SDS011;26586;50.708;22.412;2023-01-19T15:02:49;48.70;;;29.85;;
40867;SDS011;26586;50.708;22.412;2023-01-19T15:05:15;36.60;;;24.50;;
40867;SDS011;26586;50.708;22.412;2023-01-19T15:07:42;40.20;;;23.17;;
40867;SDS011;26586;50.708;22.412;2023-01-19T15:10:20;37.92;;;25.52;;
40867;SDS011;26586;50.708;22.412;2023-01-19T15:12:52;40.55;;;26.92;;
40867;SDS011;26586;50.708;22.412;2023-01-19T15:15:20;54.45;;;33.50;;
40867;SDS011;26586;50.708;22.412;2023-01-19T15:17:53;95.03;;;51.30;;
40867;SDS011;26586;50.708;22.412;2023-01-19T15:20:20;62.47;;;40.72;;
40867;SDS011;26586;50.708;22.412;2023-01-19T15:22:49;40.75;;;27.98;;
40867;SDS011;26586;50.708;22.412;2023-01-19T15:25:16;44.25;;;26.38;;
40867;SDS011;26586;50.708;22.412;2023-01-19T15:27:45;42.05;;;26.92;;
40867;SDS011;26586;50.708;22.412;2023-01-19T15:32:45;51.35;;;31.45;;
40867;SDS011;26586;50.708;22.412;2023-01-19T15:35:12;44.45;;;29.50;;
40867;SDS011;26586;50.708;22.412;2023-01-19T15:37:44;54.10;;;33.38;;
40867;SDS011;26586;50.708;22.412;2023-01-19T15:40:11;64.65;;;37.60;;
40867;SDS011;26586;50.708;22.412;2023-01-19T15:42:38;61.70;;;36.10;;
40867;SDS011;26586;50.708;22.412;2023-01-19T15:48:05;66.43;;;36.78;;
40867;SDS011;26586;50.708;22.412;2023-01-19T15:50:34;65.45;;;38.08;;
40867;SDS011;26586;50.708;22.412;2023-01-19T15:53:02;65.55;;;37.40;;
40867;SDS011;26586;50.708;22.412;2023-01-19T15:55:28;78.90;;;38.93;;
40867;SDS011;26586;50.708;22.412;2023-01-19T15:57:55;104.20;;;53.57;;
40867;SDS011;26586;50.708;22.412;2023-01-19T16:00:28;72.70;;;39.13;;
40867;SDS011;26586;50.708;22.412;2023-01-19T16:02:56;67.78;;;36.40;;
40867;SDS011;26586;50.708;22.412;2023-01-19T16:05:23;63.83;;;35.03;;
40867;SDS011;26586;50.708;22.412;2023-01-19T16:07:50;65.68;;;37.72;;
40867;SDS011;26586;50.708;22.412;2023-01-19T16:10:16;62.97;;;34.47;;
40867;SDS011;26586;50.708;22.412;2023-01-19T16:12:43;99.30;;;51.20;;